Eurodam — PHOS — position and weather

sailwx.info

Track history (hours):
 
Tides and Currents Weather Stations Pressure Air Temp Water Temp Dewpoint Dewpoint Depression Visibility Wind Speed Wind Dir Waves Ship Positions

Eurodam (Netherlands)

Last reported at 2017-Jul-22 12:30 UTC. Time now 2017-Jul-22 12:40 UTC.
Position N 47°38' W 122°23'.

Length 287 m; draft 8 m.

Type: Ship. MMSI: 245206000.

Date/timePositionNaut miles runAvg speedWind from/ knotsBaromVisibWave heightAir tempDewpointWater temp
2017-Jul-22 12:30N 47°38' W 122°23'2 3.7
2017-Jul-22 12:00N 47°38' W 122°26'613.0
2017-Jul-22 11:30N 47°44' W 122°27'816.6
2017-Jul-22 11:00N 47°53' W 122°29'815.7
2017-Jul-22 10:30N 47°59' W 122°36'816.0
2017-Jul-22 10:00N 48°06' W 122°40'816.5
2017-Jul-22 09:30N 48°11' W 122°50'917.0
2017-Jul-22 08:58N 48°12' W 123°04'816.5
2017-Jul-22 08:30N 48°11' W 123°15'814.5
2017-Jul-22 07:59N 48°11' W 123°27'918.5
2017-Jul-22 07:30N 48°20' W 123°27'5 9.7
2017-Jul-22 07:00N 48°24' W 123°24'1 1.2
2017-Jul-22 06:10N 48°25' W 123°23'0 0.0
2017-Jul-22 05:58N 48°25' W 123°23'0 0.0
2017-Jul-22 05:24N 48°25' W 123°23'0 0.0
2017-Jul-22 04:21N 48°25' W 123°23'0 0.0
2017-Jul-22 03:36N 48°25' W 123°23'0 0.0
2017-Jul-22 03:01N 48°25' W 123°23'0 0.0
2017-Jul-22 02:54N 48°25' W 123°23'0 0.0
2017-Jul-22 02:20N 48°25' W 123°23'0 0.0
2017-Jul-22 02:00N 48°25' W 123°23'0 0.0
2017-Jul-22 01:29N 48°25' W 123°23'1 1.7
2017-Jul-22 01:00N 48°25' W 123°24'611.6
2017-Jul-22 00:30N 48°19' W 123°25'1019.8
2017-Jul-22 00:00N 48°14' W 123°38'1122.7
2017-Jul-21 23:30N 48°14' W 123°55'1123.0
2017-Jul-21 23:00N 48°18' W 124°10'1223.0
2017-Jul-21 22:30N 48°23' W 124°26'918.0
2017-Jul-21 22:00N 48°27' W 124°39'816.4
2017-Jul-21 21:29N 48°29' W 124°51'816.8
2017-Jul-21 21:00N 48°29' W 125°03'816.2
2017-Jul-21 20:30N 48°31' W 125°15'1020.9
2017-Jul-21 20:00N 48°37' W 125°28'1122.0
2017-Jul-21 19:30N 48°44' W 125°40'1121.8
2017-Jul-21 19:00N 48°51' W 125°53'1121.3
2017-Jul-21 18:30N 48°59' W 126°05'1121.0
2017-Jul-21 18:00N 49°06' W 126°17'1121.2
2017-Jul-21 17:30N 49°13' W 126°29'1121.1
2017-Jul-21 17:00N 49°20' W 126°41'1121.1
2017-Jul-21 16:30N 49°27' W 126°53'1121.1
2017-Jul-21 16:00N 49°34' W 127°06'1121.6
2017-Jul-21 15:29N 49°41' W 127°18'4 7.6
2017-Jul-21 15:00N 49°42' W 127°24'2423.7 130 / 301018.8 5.4 14.512.714.3
2017-Jul-21 14:00N 50°00' W 127°48'3625.0 130 / 301018.3 2.2 14.512.714.2
2017-Jul-21 12:33N 50°28' W 128°24'221.8
2017-Jul-21 12:29N 50°29' W 128°25'1521.9
2017-Jul-21 11:48N 50°41' W 128°38'821.1
2017-Jul-21 11:25N 50°48' W 128°45'921.3
2017-Jul-21 11:00N 50°56' W 128°51'1121.2
2017-Jul-21 10:30N 51°06' W 128°58'1122.2
2017-Jul-21 10:00N 51°16' W 129°06'1122.3
2017-Jul-21 09:30N 51°25' W 129°15'1121.8
2017-Jul-21 09:00N 51°35' W 129°23'1122.6
2017-Jul-21 08:30N 51°45' W 129°32'  
2017-Jul-18 16:13N 58°44' W 136°15'316.1
2017-Jul-18 16:00N 58°41' W 136°11'816.0
2017-Jul-18 15:30N 58°34' W 136°04'815.6
2017-Jul-18 15:00N 58°26' W 135°59'1211.7
2017-Jul-18 14:00N 58°18' W 135°43'714.3
2017-Jul-18 13:29N 58°15' W 135°31'59611.9
2017-Jul-16 11:30N 49°36' W 127°13'1121.7
2017-Jul-16 11:00N 49°28' W 127°01'1121.9
2017-Jul-16 10:30N 49°22' W 126°48'1121.8
2017-Jul-16 10:00N 49°15' W 126°34'1121.8
2017-Jul-16 09:30N 49°09' W 126°21'1121.5
2017-Jul-16 09:00N 49°03' W 126°07'3175.0
2017-Jul-16 09:00N 49°00' W 126°06'917.9 300 / 91023.610.8 14.211.713.5
2017-Jul-16 08:30N 48°57' W 125°54'1021.0
2017-Jul-16 08:00N 48°51' W 125°41'1020.8
2017-Jul-16 07:30N 48°45' W 125°27'1121.3
2017-Jul-16 07:00N 48°40' W 125°13'1122.0
2017-Jul-16 06:30N 48°35' W 124°59'1122.5
2017-Jul-16 06:00N 48°30' W 124°43'1122.2
2017-Jul-16 05:30N 48°27' W 124°27'1121.4
2017-Jul-16 05:00N 48°22' W 124°12'1121.0
2017-Jul-16 04:30N 48°18' W 123°58'1020.6
2017-Jul-16 04:00N 48°16' W 123°43'918.1
2017-Jul-16 03:30N 48°14' W 123°30'815.1
2017-Jul-16 03:01N 48°09' W 123°22'816.8
2017-Jul-16 02:30N 48°12' W 123°10'1019.0
2017-Jul-16 01:59N 48°12' W 122°56'917.7
2017-Jul-16 01:30N 48°09' W 122°44'1017.9
2017-Jul-16 00:58N 48°01' W 122°36'919.1
2017-Jul-16 00:30N 47°54' W 122°29'1019.6
2017-Jul-16 00:00N 47°44' W 122°27'713.9
2017-Jul-15 23:30N 47°37' W 122°23'0 0.7
2017-Jul-15 23:00N 47°38' W 122°23'0 0.0
2017-Jul-15 22:30N 47°38' W 122°23'0 0.0
2017-Jul-15 22:00N 47°38' W 122°23'0 0.0
2017-Jul-15 21:30N 47°38' W 122°23'0 0.0
2017-Jul-15 21:00N 47°38' W 122°23'0 0.0
2017-Jul-15 20:31N 47°38' W 122°23'0 0.0
2017-Jul-15 20:00N 47°38' W 122°23'0 0.0
2017-Jul-15 19:30N 47°38' W 122°23'0 0.0
2017-Jul-15 19:00N 47°38' W 122°23'0 0.0
2017-Jul-15 18:30N 47°38' W 122°23'0 0.0
2017-Jul-15 18:00N 47°38' W 122°23'0 0.0
2017-Jul-15 17:30N 47°38' W 122°23'0 0.0
2017-Jul-15 17:00N 47°38' W 122°23'0 0.0
2017-Jul-15 16:30N 47°38' W 122°23'0 0.0
2017-Jul-15 16:00N 47°38' W 122°23'0 0.0
2017-Jul-15 15:30N 47°38' W 122°23'0 0.0
2017-Jul-15 15:00N 47°38' W 122°23'0 0.0
2017-Jul-15 14:00N 47°38' W 122°23'0 0.0
2017-Jul-15 13:30N 47°38' W 122°23'0 0.0
2017-Jul-15 13:00N 47°38' W 122°23'0 0.2
2017-Jul-15 12:30N 47°38' W 122°23'2 4.7
2017-Jul-15 12:00N 47°38' W 122°26'4 8.8
2017-Jul-15 11:30N 47°43' W 122°28'815.9
2017-Jul-15 11:00N 47°51' W 122°28'816.5
2017-Jul-15 10:30N 47°58' W 122°35'816.0
2017-Jul-15 10:00N 48°05' W 122°39'815.4
2017-Jul-15 09:30N 48°10' W 122°48'816.2
2017-Jul-15 09:01N 48°11' W 122°60'816.6
2017-Jul-15 08:30N 48°11' W 123°12'714.8
2017-Jul-15 08:01N 48°10' W 123°23'815.8
2017-Jul-15 07:30N 48°17' W 123°29'815.8
2017-Jul-15 07:00N 48°24' W 123°25'1 2.1
2017-Jul-15 06:21N 48°25' W 123°23'0 0.0
2017-Jul-15 05:43N 48°25' W 123°23'0 0.0
2017-Jul-15 05:19N 48°25' W 123°23'0 0.0
2017-Jul-15 04:50N 48°25' W 123°23'0 0.0
2017-Jul-15 04:28N 48°25' W 123°23'0 0.0
2017-Jul-15 02:49N 48°25' W 123°23'0 0.0
2017-Jul-15 02:26N 48°25' W 123°23'0 0.0
2017-Jul-15 01:16N 48°25' W 123°23'0 0.0
2017-Jul-15 00:58N 48°25' W 123°23'0 0.2
2017-Jul-15 00:31N 48°25' W 123°23'4 8.1
2017-Jul-15 00:00N 48°21' W 123°24'1019.5
2017-Jul-14 23:30N 48°14' W 123°34'1122.4
2017-Jul-14 23:00N 48°14' W 123°51'1122.2
2017-Jul-14 22:31N 48°17' W 124°07'1122.4
2017-Jul-14 22:00N 48°21' W 124°22'1019.6
2017-Jul-14 21:30N 48°26' W 124°35'815.3
2017-Jul-14 21:00N 48°28' W 124°46'815.3
2017-Jul-14 20:30N 48°28' W 124°58'816.0
2017-Jul-14 20:00N 48°29' W 125°10'815.3
2017-Jul-14 19:30N 48°33' W 125°20'917.6
2017-Jul-14 19:00N 48°38' W 125°31'1122.3
2017-Jul-14 18:30N 48°46' W 125°42'1122.4
2017-Jul-14 18:00N 48°53' W 125°56'1122.2
2017-Jul-14 17:30N 49°00' W 126°08'1122.2
2017-Jul-14 17:00N 49°07' W 126°21'1122.3
2017-Jul-14 16:30N 49°14' W 126°35'1122.3
2017-Jul-14 16:00N 49°22' W 126°48'7222.7
2017-Jul-14 12:51N 50°12' W 128°07'823.0
2017-Jul-14 12:29N 50°18' W 128°14'1122.7
2017-Jul-14 12:00N 50°27' W 128°24'  
Track history (hours):
 
Tides and Currents Weather Stations Pressure Air Temp Water Temp Dewpoint Dewpoint Depression Visibility Wind Speed Wind Dir Waves Ship Positions

Eurodam (Netherlands)

Last reported at 2017-Jul-22 12:30 UTC. Time now 2017-Jul-22 12:40 UTC.
Position N 47°38' W 122°23'.

Length 287 m; draft 8 m.

Type: Ship. MMSI: 245206000.

Date/timePositionNaut miles runAvg speedWind from/ knotsBaromVisibWave heightAir tempDewpointWater temp
2017-Jul-22 12:30N 47°38' W 122°23'2 3.7
2017-Jul-22 12:00N 47°38' W 122°26'613.0
2017-Jul-22 11:30N 47°44' W 122°27'816.6
2017-Jul-22 11:00N 47°53' W 122°29'815.7
2017-Jul-22 10:30N 47°59' W 122°36'816.0
2017-Jul-22 10:00N 48°06' W 122°40'816.5
2017-Jul-22 09:30N 48°11' W 122°50'917.0
2017-Jul-22 08:58N 48°12' W 123°04'816.5
2017-Jul-22 08:30N 48°11' W 123°15'814.5
2017-Jul-22 07:59N 48°11' W 123°27'918.5
2017-Jul-22 07:30N 48°20' W 123°27'5 9.7
2017-Jul-22 07:00N 48°24' W 123°24'1 1.2
2017-Jul-22 06:10N 48°25' W 123°23'0 0.0
2017-Jul-22 05:58N 48°25' W 123°23'0 0.0
2017-Jul-22 05:24N 48°25' W 123°23'0 0.0
2017-Jul-22 04:21N 48°25' W 123°23'0 0.0
2017-Jul-22 03:36N 48°25' W 123°23'0 0.0
2017-Jul-22 03:01N 48°25' W 123°23'0 0.0
2017-Jul-22 02:54N 48°25' W 123°23'0 0.0
2017-Jul-22 02:20N 48°25' W 123°23'0 0.0
2017-Jul-22 02:00N 48°25' W 123°23'0 0.0
2017-Jul-22 01:29N 48°25' W 123°23'1 1.7
2017-Jul-22 01:00N 48°25' W 123°24'611.6
2017-Jul-22 00:30N 48°19' W 123°25'1019.8
2017-Jul-22 00:00N 48°14' W 123°38'1122.7
2017-Jul-21 23:30N 48°14' W 123°55'1123.0
2017-Jul-21 23:00N 48°18' W 124°10'1223.0
2017-Jul-21 22:30N 48°23' W 124°26'918.0
2017-Jul-21 22:00N 48°27' W 124°39'816.4
2017-Jul-21 21:29N 48°29' W 124°51'816.8
2017-Jul-21 21:00N 48°29' W 125°03'816.2
2017-Jul-21 20:30N 48°31' W 125°15'1020.9
2017-Jul-21 20:00N 48°37' W 125°28'1122.0
2017-Jul-21 19:30N 48°44' W 125°40'1121.8
2017-Jul-21 19:00N 48°51' W 125°53'1121.3
2017-Jul-21 18:30N 48°59' W 126°05'1121.0
2017-Jul-21 18:00N 49°06' W 126°17'1121.2
2017-Jul-21 17:30N 49°13' W 126°29'1121.1
2017-Jul-21 17:00N 49°20' W 126°41'1121.1
2017-Jul-21 16:30N 49°27' W 126°53'1121.1
2017-Jul-21 16:00N 49°34' W 127°06'1121.6
2017-Jul-21 15:29N 49°41' W 127°18'4 7.6
2017-Jul-21 15:00N 49°42' W 127°24'2423.7 130 / 301018.8 5.4 14.512.714.3
2017-Jul-21 14:00N 50°00' W 127°48'3625.0 130 / 301018.3 2.2 14.512.714.2
2017-Jul-21 12:33N 50°28' W 128°24'221.8
2017-Jul-21 12:29N 50°29' W 128°25'1521.9
2017-Jul-21 11:48N 50°41' W 128°38'821.1
2017-Jul-21 11:25N 50°48' W 128°45'921.3
2017-Jul-21 11:00N 50°56' W 128°51'1121.2
2017-Jul-21 10:30N 51°06' W 128°58'1122.2
2017-Jul-21 10:00N 51°16' W 129°06'1122.3
2017-Jul-21 09:30N 51°25' W 129°15'1121.8
2017-Jul-21 09:00N 51°35' W 129°23'1122.6
2017-Jul-21 08:30N 51°45' W 129°32'  
2017-Jul-18 16:13N 58°44' W 136°15'316.1
2017-Jul-18 16:00N 58°41' W 136°11'816.0
2017-Jul-18 15:30N 58°34' W 136°04'815.6
2017-Jul-18 15:00N 58°26' W 135°59'1211.7
2017-Jul-18 14:00N 58°18' W 135°43'714.3
2017-Jul-18 13:29N 58°15' W 135°31'59611.9
2017-Jul-16 11:30N 49°36' W 127°13'1121.7
2017-Jul-16 11:00N 49°28' W 127°01'1121.9
2017-Jul-16 10:30N 49°22' W 126°48'1121.8
2017-Jul-16 10:00N 49°15' W 126°34'1121.8
2017-Jul-16 09:30N 49°09' W 126°21'1121.5
2017-Jul-16 09:00N 49°03' W 126°07'3175.0
2017-Jul-16 09:00N 49°00' W 126°06'917.9 300 / 91023.610.8 14.211.713.5
2017-Jul-16 08:30N 48°57' W 125°54'1021.0
2017-Jul-16 08:00N 48°51' W 125°41'1020.8
2017-Jul-16 07:30N 48°45' W 125°27'1121.3
2017-Jul-16 07:00N 48°40' W 125°13'1122.0
2017-Jul-16 06:30N 48°35' W 124°59'1122.5
2017-Jul-16 06:00N 48°30' W 124°43'1122.2
2017-Jul-16 05:30N 48°27' W 124°27'1121.4
2017-Jul-16 05:00N 48°22' W 124°12'1121.0
2017-Jul-16 04:30N 48°18' W 123°58'1020.6
2017-Jul-16 04:00N 48°16' W 123°43'918.1
2017-Jul-16 03:30N 48°14' W 123°30'815.1
2017-Jul-16 03:01N 48°09' W 123°22'816.8
2017-Jul-16 02:30N 48°12' W 123°10'1019.0
2017-Jul-16 01:59N 48°12' W 122°56'917.7
2017-Jul-16 01:30N 48°09' W 122°44'1017.9
2017-Jul-16 00:58N 48°01' W 122°36'919.1
2017-Jul-16 00:30N 47°54' W 122°29'1019.6
2017-Jul-16 00:00N 47°44' W 122°27'713.9
2017-Jul-15 23:30N 47°37' W 122°23'0 0.7
2017-Jul-15 23:00N 47°38' W 122°23'0 0.0
2017-Jul-15 22:30N 47°38' W 122°23'0 0.0
2017-Jul-15 22:00N 47°38' W 122°23'0 0.0
2017-Jul-15 21:30N 47°38' W 122°23'0 0.0
2017-Jul-15 21:00N 47°38' W 122°23'0 0.0
2017-Jul-15 20:31N 47°38' W 122°23'0 0.0
2017-Jul-15 20:00N 47°38' W 122°23'0 0.0
2017-Jul-15 19:30N 47°38' W 122°23'0 0.0
2017-Jul-15 19:00N 47°38' W 122°23'0 0.0
2017-Jul-15 18:30N 47°38' W 122°23'0 0.0
2017-Jul-15 18:00N 47°38' W 122°23'0 0.0
2017-Jul-15 17:30N 47°38' W 122°23'0 0.0
2017-Jul-15 17:00N 47°38' W 122°23'0 0.0
2017-Jul-15 16:30N 47°38' W 122°23'0 0.0
2017-Jul-15 16:00N 47°38' W 122°23'0 0.0
2017-Jul-15 15:30N 47°38' W 122°23'0 0.0
2017-Jul-15 15:00N 47°38' W 122°23'0 0.0
2017-Jul-15 14:00N 47°38' W 122°23'0 0.0
2017-Jul-15 13:30N 47°38' W 122°23'0 0.0
2017-Jul-15 13:00N 47°38' W 122°23'0 0.2
2017-Jul-15 12:30N 47°38' W 122°23'2 4.7
2017-Jul-15 12:00N 47°38' W 122°26'4 8.8
2017-Jul-15 11:30N 47°43' W 122°28'815.9
2017-Jul-15 11:00N 47°51' W 122°28'816.5
2017-Jul-15 10:30N 47°58' W 122°35'816.0
2017-Jul-15 10:00N 48°05' W 122°39'815.4
2017-Jul-15 09:30N 48°10' W 122°48'816.2
2017-Jul-15 09:01N 48°11' W 122°60'816.6
2017-Jul-15 08:30N 48°11' W 123°12'714.8
2017-Jul-15 08:01N 48°10' W 123°23'815.8
2017-Jul-15 07:30N 48°17' W 123°29'815.8
2017-Jul-15 07:00N 48°24' W 123°25'1 2.1
2017-Jul-15 06:21N 48°25' W 123°23'0 0.0
2017-Jul-15 05:43N 48°25' W 123°23'0 0.0
2017-Jul-15 05:19N 48°25' W 123°23'0 0.0
2017-Jul-15 04:50N 48°25' W 123°23'0 0.0
2017-Jul-15 04:28N 48°25' W 123°23'0 0.0
2017-Jul-15 02:49N 48°25' W 123°23'0 0.0
2017-Jul-15 02:26N 48°25' W 123°23'0 0.0
2017-Jul-15 01:16N 48°25' W 123°23'0 0.0
2017-Jul-15 00:58N 48°25' W 123°23'0 0.2
2017-Jul-15 00:31N 48°25' W 123°23'4 8.1
2017-Jul-15 00:00N 48°21' W 123°24'1019.5
2017-Jul-14 23:30N 48°14' W 123°34'1122.4
2017-Jul-14 23:00N 48°14' W 123°51'1122.2
2017-Jul-14 22:31N 48°17' W 124°07'1122.4
2017-Jul-14 22:00N 48°21' W 124°22'1019.6
2017-Jul-14 21:30N 48°26' W 124°35'815.3
2017-Jul-14 21:00N 48°28' W 124°46'815.3
2017-Jul-14 20:30N 48°28' W 124°58'816.0
2017-Jul-14 20:00N 48°29' W 125°10'815.3
2017-Jul-14 19:30N 48°33' W 125°20'917.6
2017-Jul-14 19:00N 48°38' W 125°31'1122.3
2017-Jul-14 18:30N 48°46' W 125°42'1122.4
2017-Jul-14 18:00N 48°53' W 125°56'1122.2
2017-Jul-14 17:30N 49°00' W 126°08'1122.2
2017-Jul-14 17:00N 49°07' W 126°21'1122.3
2017-Jul-14 16:30N 49°14' W 126°35'1122.3
2017-Jul-14 16:00N 49°22' W 126°48'7222.7
2017-Jul-14 12:51N 50°12' W 128°07'823.0
2017-Jul-14 12:29N 50°18' W 128°14'1122.7
2017-Jul-14 12:00N 50°27' W 128°24'  

Dump ship's entire track history